createdAt,value
2018-11-29T00:03:39.586Z,22.47
2018-11-29T00:08:19.731Z,23.27
2018-11-29T00:12:59.760Z,22.43
2018-11-29T00:17:39.705Z,21.87
2018-11-29T00:22:19.699Z,26.10
2018-11-29T00:27:00.241Z,23.80
2018-11-29T00:31:40.459Z,28.10
2018-11-29T00:36:20.424Z,24.27
2018-11-29T00:41:00.619Z,24.33
2018-11-29T00:45:40.551Z,25.07
2018-11-29T00:50:21.063Z,24.07
2018-11-29T00:55:02.251Z,23.53
2018-11-29T00:59:42.400Z,24.10
2018-11-29T01:04:22.391Z,23.90
2018-11-29T01:09:02.022Z,24.93
2018-11-29T01:13:42.028Z,23.77
2018-11-29T01:18:22.144Z,22.80
2018-11-29T01:23:01.972Z,22.17
2018-11-29T01:27:43.560Z,20.73
2018-11-29T01:32:23.568Z,22.57
2018-11-29T01:37:04.004Z,22.83
2018-11-29T01:41:44.135Z,26.07
2018-11-29T01:46:24.096Z,23.40
2018-11-29T01:51:04.266Z,26.97
2018-11-29T01:55:44.435Z,25.07
2018-11-29T02:00:24.111Z,26.27
2018-11-29T02:05:04.465Z,22.50
2018-11-29T02:09:45.015Z,23.70
2018-11-29T02:14:25.003Z,24.13
2018-11-29T02:19:05.288Z,23.90
2018-11-29T02:23:44.950Z,24.63
2018-11-29T02:28:25.056Z,23.73
2018-11-29T02:33:05.185Z,24.37
2018-11-29T02:37:45.292Z,23.43
2018-11-29T02:42:25.141Z,23.57
2018-11-29T02:47:04.932Z,24.23
2018-11-29T02:51:45.058Z,23.67
2018-11-29T02:56:25.150Z,23.20
2018-11-29T03:01:05.280Z,24.93
2018-11-29T03:05:45.471Z,23.83
2018-11-29T03:10:27.464Z,25.73
2018-11-29T03:15:16.040Z,24.27
2018-11-29T03:19:56.208Z,22.93
2018-11-29T03:24:36.391Z,24.73
2018-11-29T03:29:16.410Z,24.20
2018-11-29T03:33:56.411Z,20.27
2018-11-29T03:38:36.488Z,19.63
2018-11-29T03:43:17.113Z,22.73
2018-11-29T03:47:57.193Z,24.60
2018-11-29T03:52:37.492Z,24.47
2018-11-29T03:57:17.566Z,21.20
2018-11-29T04:01:57.743Z,23.73
2018-11-29T04:06:37.797Z,27.03
2018-11-29T04:11:18.115Z,22.83
2018-11-29T04:15:57.926Z,22.30
2018-11-29T04:20:37.842Z,23.50
2018-11-29T04:25:17.588Z,58.23
2018-11-29T04:29:58.069Z,39.30
2018-11-29T04:34:38.645Z,27.13
2018-11-29T04:39:18.906Z,26.53
2018-11-29T04:43:58.771Z,25.53
2018-11-29T04:48:39.129Z,24.00
2018-11-29T04:53:19.116Z,21.60
2018-11-29T04:57:59.165Z,24.23
2018-11-29T05:02:39.092Z,35.53
2018-11-29T05:07:19.252Z,30.30
2018-11-29T05:11:59.492Z,22.83
2018-11-29T05:16:39.619Z,23.93
2018-11-29T05:21:19.813Z,24.83
2018-11-29T05:25:59.992Z,24.07
2018-11-29T05:30:39.776Z,24.60
2018-11-29T05:35:19.749Z,25.03
2018-11-29T05:40:00.108Z,25.33
2018-11-29T05:44:40.056Z,58.87
2018-11-29T05:49:20.928Z,38.57
2018-11-29T05:54:00.924Z,45.47
2018-11-29T05:58:41.268Z,42.33
2018-11-29T06:03:21.268Z,49.50
2018-11-29T06:08:01.652Z,38.00
2018-11-29T06:12:41.735Z,41.67
2018-11-29T06:17:21.511Z,45.53
2018-11-29T06:22:01.427Z,34.87
2018-11-29T06:26:41.788Z,28.97
2018-11-29T06:31:22.029Z,29.00
2018-11-29T06:36:02.219Z,66.20
2018-11-29T06:40:42.361Z,52.80
2018-11-29T06:45:22.668Z,29.00
2018-11-29T06:50:02.619Z,30.27
2018-11-29T06:54:42.417Z,30.87
2018-11-29T06:59:22.660Z,28.23
2018-11-29T07:04:02.967Z,35.37
2018-11-29T07:08:43.630Z,36.13
2018-11-29T07:13:23.730Z,23.47
2018-11-29T07:18:03.874Z,41.43
2018-11-29T07:22:44.142Z,42.77
2018-11-29T07:27:24.752Z,39.07
2018-11-29T07:32:05.122Z,37.57
2018-11-29T07:36:45.631Z,44.10
2018-11-29T07:41:25.736Z,47.00
2018-11-29T07:46:06.891Z,34.93
2018-11-29T07:50:46.887Z,38.60
2018-11-29T07:55:26.952Z,39.63
2018-11-29T08:00:09.260Z,39.10
2018-11-29T08:04:49.247Z,39.03
2018-11-29T08:09:30.014Z,40.33
2018-11-29T08:14:10.232Z,36.53
2018-11-29T08:18:50.303Z,78.13
2018-11-29T08:23:30.194Z,38.43
2018-11-29T08:28:10.364Z,33.77
2018-11-29T08:32:51.673Z,38.60
2018-11-29T08:37:31.757Z,37.40
2018-11-29T08:42:11.962Z,29.43
2018-11-29T08:46:51.758Z,29.23
2018-11-29T08:51:32.193Z,24.97
2018-11-29T08:56:12.212Z,22.63
2018-11-29T09:00:52.179Z,20.77
2018-11-29T09:05:34.023Z,21.37
2018-11-29T09:10:15.024Z,21.87
2018-11-29T09:14:55.056Z,21.67
2018-11-29T09:19:37.531Z,21.07
2018-11-29T09:24:15.274Z,21.70
2018-11-29T09:28:55.261Z,20.47
2018-11-29T09:33:35.334Z,21.20
2018-11-29T09:38:15.463Z,20.03
2018-11-29T09:42:55.588Z,21.63
2018-11-29T09:47:35.523Z,21.80
2018-11-29T09:52:15.811Z,21.30
2018-11-29T09:56:55.775Z,21.83
2018-11-29T10:01:35.532Z,19.57
2018-11-29T10:06:15.476Z,20.53
2018-11-29T10:10:55.645Z,20.20
2018-11-29T10:15:36.267Z,20.93
2018-11-29T10:20:16.188Z,21.10
2018-11-29T10:24:56.218Z,20.03
2018-11-29T10:29:36.119Z,20.00
2018-11-29T10:34:16.320Z,21.27
2018-11-29T10:38:56.585Z,22.10
2018-11-29T10:43:37.068Z,19.50
2018-11-29T10:48:21.400Z,19.93
2018-11-29T10:53:01.496Z,20.00
2018-11-29T10:57:41.371Z,23.20
2018-11-29T11:02:26.793Z,19.40
2018-11-29T11:07:06.920Z,19.27
2018-11-29T11:11:47.072Z,18.83
2018-11-29T11:16:26.873Z,18.53
2018-11-29T11:21:07.003Z,17.87
2018-11-29T11:25:47.064Z,27.70
2018-11-29T11:30:27.519Z,22.23
2018-11-29T11:35:08.255Z,17.63
2018-11-29T11:39:48.141Z,18.53
2018-11-29T11:44:28.056Z,17.57
2018-11-29T11:49:08.064Z,17.77
2018-11-29T11:53:48.195Z,19.00
2018-11-29T11:58:27.988Z,18.50
2018-11-29T12:03:12.661Z,17.40
2018-11-29T12:07:53.380Z,17.47
2018-11-29T12:12:33.275Z,17.57
2018-11-29T12:17:13.476Z,17.75
2018-11-29T12:21:53.228Z,16.90
2018-11-29T12:26:33.304Z,17.20
2018-11-29T12:31:13.473Z,18.50
2018-11-29T12:35:53.281Z,17.20
2018-11-29T12:40:33.381Z,15.77
2018-11-29T12:45:14.243Z,16.48
2018-11-29T12:49:54.252Z,15.58
2018-11-29T12:54:34.037Z,14.70
2018-11-29T12:59:14.304Z,14.13
2018-11-29T13:03:54.290Z,14.75
2018-11-29T13:08:34.555Z,12.55
2018-11-29T13:13:15.220Z,13.78
2018-11-29T13:17:56.185Z,13.93
2018-11-29T13:22:36.593Z,13.00
2018-11-29T13:27:17.184Z,12.70
2018-11-29T13:31:57.985Z,11.57
2018-11-29T13:36:37.796Z,11.50
2018-11-29T13:41:17.729Z,11.03
2018-11-29T13:45:57.809Z,10.85
2018-11-29T13:50:38.096Z,9.73
2018-11-29T13:55:18.247Z,11.28
2018-11-29T13:59:57.932Z,10.08
2018-11-29T14:04:37.796Z,10.43
2018-11-29T14:09:17.642Z,15.58
2018-11-29T14:13:58.862Z,9.63
2018-11-29T14:18:38.816Z,10.05
2018-11-29T14:23:18.609Z,10.23
2018-11-29T14:27:58.946Z,8.73
2018-11-29T14:32:38.932Z,8.88
2018-11-29T14:37:19.162Z,9.60
2018-11-29T14:41:58.972Z,8.18
2018-11-29T14:46:38.880Z,7.62
2018-11-29T14:51:18.914Z,8.70
2018-11-29T14:55:58.854Z,8.50
2018-11-29T15:00:40.304Z,9.63
2018-11-29T15:05:31.164Z,9.40
2018-11-29T15:10:11.173Z,9.38
2018-11-29T15:14:51.280Z,9.73
2018-11-29T15:19:31.398Z,9.85
2018-11-29T15:24:11.721Z,9.50
2018-11-29T15:28:52.324Z,9.28
2018-11-29T15:33:32.536Z,10.10
2018-11-29T15:38:13.302Z,10.47
2018-11-29T15:42:53.431Z,10.80
2018-11-29T15:47:33.555Z,10.63
2018-11-29T15:52:13.689Z,12.13
2018-11-29T15:56:53.561Z,17.83
2018-11-29T16:01:33.323Z,11.93
2018-11-29T16:06:13.251Z,14.47
2018-11-29T16:10:53.359Z,14.13
2018-11-29T16:15:33.516Z,15.43
2018-11-29T16:20:17.086Z,20.07
2018-11-29T16:24:56.421Z,16.90
2018-11-29T16:29:36.182Z,17.37
2018-11-29T16:34:16.552Z,18.23
2018-11-29T16:38:56.644Z,17.73
2018-11-29T16:43:37.196Z,21.63
2018-11-29T16:48:17.075Z,20.20
2018-11-29T16:52:57.333Z,15.90
2018-11-29T16:57:37.394Z,18.17
2018-11-29T17:02:17.435Z,18.47
2018-11-29T17:06:57.440Z,68.90
2018-11-29T17:11:37.522Z,20.63
2018-11-29T17:16:17.679Z,25.07
2018-11-29T17:20:57.788Z,50.50
2018-11-29T17:25:37.600Z,20.03
2018-11-29T17:30:25.685Z,21.23
2018-11-29T17:35:07.160Z,19.10
2018-11-29T17:39:47.000Z,22.80
2018-11-29T17:44:27.699Z,26.87
2018-11-29T17:49:08.167Z,25.53
2018-11-29T17:53:48.187Z,24.13
2018-11-29T17:58:27.980Z,27.40
2018-11-29T18:03:08.489Z,30.13
2018-11-29T18:07:48.568Z,26.90
2018-11-29T18:12:29.045Z,30.57
2018-11-29T18:17:09.315Z,21.67
2018-11-29T18:21:49.144Z,23.53
2018-11-29T18:26:29.127Z,20.87
2018-11-29T18:31:09.144Z,16.73
2018-11-29T18:35:48.936Z,16.37
2018-11-29T18:40:29.232Z,28.50
2018-11-29T18:45:14.667Z,19.37
2018-11-29T18:49:55.341Z,23.83
2018-11-29T18:54:35.316Z,32.23
2018-11-29T18:59:15.152Z,57.80
2018-11-29T19:03:55.136Z,35.50
2018-11-29T19:08:35.240Z,30.43
2018-11-29T19:13:15.809Z,26.03
2018-11-29T19:17:55.924Z,23.37
2018-11-29T19:22:36.336Z,20.77
2018-11-29T19:27:16.504Z,21.90
2018-11-29T19:31:56.665Z,72.93
2018-11-29T19:36:36.601Z,23.60
2018-11-29T19:41:17.600Z,24.33
2018-11-29T19:45:58.671Z,25.37
2018-11-29T19:50:38.740Z,34.20
2018-11-29T19:55:20.165Z,28.73
2018-11-29T20:00:00.744Z,25.73
2018-11-29T20:04:41.713Z,30.57
2018-11-29T20:09:21.577Z,22.07
2018-11-29T20:14:01.643Z,20.60
2018-11-29T20:18:42.260Z,22.87
2018-11-29T20:23:22.697Z,24.90
2018-11-29T20:28:02.669Z,29.20
2018-11-29T20:32:42.634Z,47.37
2018-11-29T20:37:22.704Z,35.50
2018-11-29T20:42:02.944Z,35.27
2018-11-29T20:46:42.801Z,27.50
2018-11-29T20:51:23.081Z,28.70
2018-11-29T20:56:03.682Z,25.50
2018-11-29T21:00:43.584Z,22.63
2018-11-29T21:05:24.444Z,26.47
2018-11-29T21:10:06.207Z,18.40
2018-11-29T21:14:46.540Z,16.00
2018-11-29T21:19:26.280Z,21.10
2018-11-29T21:24:06.600Z,14.53
2018-11-29T21:28:46.915Z,14.57
2018-11-29T21:33:27.116Z,23.43
2018-11-29T21:38:13.116Z,23.07
2018-11-29T21:42:54.307Z,14.80
2018-11-29T21:47:34.756Z,21.97
2018-11-29T21:52:14.540Z,16.90
2018-11-29T21:56:55.001Z,13.20
2018-11-29T22:01:35.070Z,12.00
2018-11-29T22:06:15.033Z,14.23
2018-11-29T22:10:54.900Z,15.80
2018-11-29T22:15:34.582Z,17.97
2018-11-29T22:20:14.536Z,18.97
2018-11-29T22:24:54.572Z,18.63
2018-11-29T22:29:35.113Z,18.73
2018-11-29T22:34:15.464Z,18.23
2018-11-29T22:38:55.257Z,19.00
2018-11-29T22:43:35.089Z,27.23
2018-11-29T22:48:15.448Z,39.93
2018-11-29T22:52:55.816Z,29.47
2018-11-29T22:57:35.812Z,27.80
2018-11-29T23:02:15.827Z,30.03
2018-11-29T23:06:56.037Z,33.37
2018-11-29T23:11:35.887Z,29.50
2018-11-29T23:16:16.034Z,30.63
2018-11-29T23:20:55.984Z,28.80
2018-11-29T23:25:36.201Z,24.07
2018-11-29T23:30:17.161Z,16.50
2018-11-29T23:34:57.256Z,14.93
2018-11-29T23:39:37.328Z,14.27
2018-11-29T23:44:17.193Z,17.83
2018-11-29T23:48:57.171Z,15.63
2018-11-29T23:53:37.266Z,13.50
2018-11-29T23:58:17.665Z,16.53
